createdAt,value
2018-03-20T00:02:14.860Z,12.00
2018-03-20T00:04:43.216Z,11.93
2018-03-20T00:07:11.876Z,11.40
2018-03-20T00:09:40.185Z,11.87
2018-03-20T00:12:08.460Z,11.55
2018-03-20T00:14:36.744Z,11.23
2018-03-20T00:17:05.844Z,11.20
2018-03-20T00:19:34.127Z,11.43
2018-03-20T00:22:02.404Z,11.10
2018-03-20T00:24:30.711Z,12.10
2018-03-20T00:26:59.005Z,11.27
2018-03-20T00:29:27.315Z,11.20
2018-03-20T00:31:55.592Z,11.23
2018-03-20T00:34:23.883Z,11.17
2018-03-20T00:36:52.172Z,11.30
2018-03-20T00:39:20.496Z,11.20
2018-03-20T00:41:48.783Z,11.90
2018-03-20T00:44:17.062Z,11.48
2018-03-20T00:46:45.369Z,10.63
2018-03-20T00:49:13.679Z,11.15
2018-03-20T00:51:42.013Z,11.07
2018-03-20T00:54:10.594Z,10.27
2018-03-20T00:56:38.892Z,10.57
2018-03-20T00:59:07.167Z,10.00
2018-03-20T01:01:35.503Z,10.40
2018-03-20T01:04:04.823Z,10.46
2018-03-20T01:06:33.122Z,10.40
2018-03-20T01:09:01.713Z,10.97
2018-03-20T01:11:30.040Z,10.17
2018-03-20T01:13:58.319Z,10.20
2018-03-20T01:16:26.625Z,10.63
2018-03-20T01:18:54.898Z,10.60
2018-03-20T01:21:23.188Z,9.60
2018-03-20T01:23:51.455Z,9.80
2018-03-20T01:26:19.846Z,10.10
2018-03-20T01:28:48.113Z,9.80
2018-03-20T01:31:16.403Z,9.27
2018-03-20T01:33:44.667Z,9.87
2018-03-20T01:36:12.953Z,10.55
2018-03-20T01:38:41.222Z,9.43
2018-03-20T01:41:09.526Z,10.20
2018-03-20T01:43:37.810Z,10.90
2018-03-20T01:46:06.080Z,10.00
2018-03-20T01:48:34.413Z,10.57
2018-03-20T01:51:02.696Z,9.75
2018-03-20T01:53:30.986Z,9.53
2018-03-20T01:55:59.594Z,10.50
2018-03-20T01:58:27.921Z,9.40
2018-03-20T02:00:56.192Z,9.30
2018-03-20T02:03:24.496Z,9.70
2018-03-20T02:05:52.770Z,9.83
2018-03-20T02:08:21.054Z,10.63
2018-03-20T02:10:49.329Z,10.67
2018-03-20T02:13:17.624Z,9.10
2018-03-20T02:15:46.256Z,10.00
2018-03-20T02:18:14.614Z,10.27
2018-03-20T02:20:42.879Z,8.90
2018-03-20T02:23:11.184Z,9.93
2018-03-20T02:25:39.463Z,10.50
2018-03-20T02:28:07.764Z,9.90
2018-03-20T02:30:36.021Z,9.87
2018-03-20T02:33:05.213Z,9.32
2018-03-20T02:35:33.472Z,9.70
2018-03-20T02:38:01.790Z,10.00
2018-03-20T02:40:30.060Z,10.13
2018-03-20T02:42:58.401Z,9.70
2018-03-20T02:45:26.692Z,11.10
2018-03-20T02:47:54.968Z,10.00
2018-03-20T02:50:23.292Z,9.97
2018-03-20T02:52:51.568Z,10.40
2018-03-20T02:55:19.855Z,9.23
2018-03-20T02:57:48.117Z,9.40
2018-03-20T03:00:16.472Z,9.80
2018-03-20T03:02:44.748Z,10.37
2018-03-20T03:05:13.052Z,10.85
2018-03-20T03:07:41.319Z,9.30
2018-03-20T03:10:09.633Z,9.20
2018-03-20T03:12:37.924Z,10.47
2018-03-20T03:15:06.237Z,9.63
2018-03-20T03:17:34.523Z,9.70
2018-03-20T03:20:02.816Z,8.73
2018-03-20T03:22:31.180Z,8.83
2018-03-20T03:24:59.461Z,10.10
2018-03-20T03:27:27.737Z,9.83
2018-03-20T03:29:56.023Z,9.53
2018-03-20T03:32:24.295Z,9.73
2018-03-20T03:34:52.588Z,9.37
2018-03-20T03:37:20.907Z,9.50
2018-03-20T03:39:49.191Z,9.83
2018-03-20T03:42:17.456Z,9.43
2018-03-20T03:44:45.771Z,9.00
2018-03-20T03:47:14.062Z,10.05
2018-03-20T03:49:42.356Z,10.03
2018-03-20T03:52:10.656Z,10.00
2018-03-20T03:54:38.930Z,10.27
2018-03-20T03:57:07.234Z,9.90
2018-03-20T03:59:35.528Z,9.87
2018-03-20T04:02:03.824Z,10.23
2018-03-20T04:04:32.098Z,9.27
2018-03-20T04:07:00.380Z,10.30
2018-03-20T04:09:28.648Z,9.63
2018-03-20T04:11:56.988Z,8.50
2018-03-20T04:14:25.286Z,9.90
2018-03-20T04:16:53.581Z,10.23
2018-03-20T04:19:21.853Z,9.30
2018-03-20T04:21:50.136Z,9.80
2018-03-20T04:24:18.411Z,8.75
2018-03-20T04:26:46.699Z,8.33
2018-03-20T04:29:14.955Z,8.67
2018-03-20T04:31:43.279Z,8.90
2018-03-20T04:34:11.548Z,10.10
2018-03-20T04:36:39.845Z,9.80
2018-03-20T04:39:08.211Z,9.77
2018-03-20T04:41:36.473Z,10.70
2018-03-20T04:44:05.688Z,9.77
2018-03-20T04:46:33.964Z,10.27
2018-03-20T04:49:02.273Z,10.40
2018-03-20T04:51:30.548Z,10.20
2018-03-20T04:53:58.867Z,10.30
2018-03-20T04:56:27.168Z,10.20
2018-03-20T04:58:55.518Z,9.87
2018-03-20T05:01:24.132Z,9.30
2018-03-20T05:03:52.440Z,9.03
2018-03-20T05:06:20.721Z,9.33
2018-03-20T05:08:49.014Z,9.40
2018-03-20T05:11:17.291Z,8.35
2018-03-20T05:13:45.579Z,9.53
2018-03-20T05:16:13.892Z,9.40
2018-03-20T05:18:56.061Z,10.07
2018-03-20T05:21:29.803Z,9.50
2018-03-20T05:23:58.105Z,9.03
2018-03-20T05:26:26.360Z,9.53
2018-03-20T05:28:54.736Z,10.70
2018-03-20T05:31:22.941Z,10.37
2018-03-20T05:33:51.264Z,9.63
2018-03-20T05:36:19.548Z,9.25
2018-03-20T05:38:47.832Z,9.27
2018-03-20T05:41:16.118Z,9.10
2018-03-20T05:43:44.444Z,9.63
2018-03-20T05:46:12.773Z,9.60
2018-03-20T05:48:46.755Z,10.00
2018-03-20T05:51:18.403Z,8.93
2018-03-20T05:53:46.682Z,9.10
2018-03-20T05:56:14.991Z,9.30
2018-03-20T05:58:43.252Z,8.63
2018-03-20T06:01:11.566Z,9.43
2018-03-20T06:03:39.848Z,8.80
2018-03-20T06:06:08.183Z,9.23
2018-03-20T06:08:36.540Z,9.97
2018-03-20T06:11:05.039Z,8.83
2018-03-20T06:13:33.326Z,9.30
2018-03-20T06:16:01.673Z,9.47
2018-03-20T06:18:29.946Z,9.63
2018-03-20T06:20:58.271Z,9.23
2018-03-20T06:23:26.531Z,10.40
2018-03-20T06:25:54.831Z,8.80
2018-03-20T06:28:23.118Z,9.57
2018-03-20T06:30:51.529Z,9.40
2018-03-20T06:33:19.838Z,9.27
2018-03-20T06:35:48.822Z,10.43
2018-03-20T06:38:17.128Z,9.30
2018-03-20T06:40:45.410Z,8.83
2018-03-20T06:43:13.713Z,9.93
2018-03-20T06:45:41.984Z,9.90
2018-03-20T06:48:10.284Z,9.30
2018-03-20T06:50:38.582Z,9.93
2018-03-20T06:53:07.663Z,10.80
2018-03-20T06:55:35.995Z,11.50
2018-03-20T06:58:04.965Z,9.83
2018-03-20T07:00:33.244Z,10.90
2018-03-20T07:03:01.538Z,10.80
2018-03-20T07:05:29.815Z,10.93
2018-03-20T07:07:58.126Z,12.00
2018-03-20T07:10:26.381Z,11.23
2018-03-20T07:12:54.679Z,10.53
2018-03-20T07:15:22.942Z,11.53
2018-03-20T07:17:51.280Z,9.38
2018-03-20T07:20:19.527Z,8.70
2018-03-20T07:22:47.841Z,9.03
2018-03-20T07:25:16.594Z,8.83
2018-03-20T07:27:44.873Z,12.33
2018-03-20T07:30:13.200Z,7.80
2018-03-20T07:32:41.439Z,7.40
2018-03-20T07:35:09.775Z,9.00
2018-03-20T07:37:38.052Z,7.30
2018-03-20T07:40:06.347Z,8.20
2018-03-20T07:42:34.750Z,7.50
2018-03-20T07:45:03.088Z,7.40
2018-03-20T07:47:31.378Z,7.40
2018-03-20T07:50:00.190Z,7.63
2018-03-20T07:52:28.462Z,6.87
2018-03-20T07:54:56.747Z,7.67
2018-03-20T07:57:25.076Z,7.00
2018-03-20T07:59:53.373Z,6.60
2018-03-20T08:02:21.658Z,7.35
2018-03-20T08:04:49.960Z,5.97
2018-03-20T08:07:18.232Z,7.17
2018-03-20T08:09:46.525Z,6.62
2018-03-20T08:12:14.814Z,5.97
2018-03-20T08:14:43.103Z,6.20
2018-03-20T08:17:11.373Z,5.82
2018-03-20T08:19:39.647Z,7.27
2018-03-20T08:22:07.966Z,5.10
2018-03-20T08:24:36.242Z,6.57
2018-03-20T08:27:04.921Z,6.90
2018-03-20T08:29:33.940Z,6.40
2018-03-20T08:32:03.018Z,6.70
2018-03-20T08:34:31.371Z,6.40
2018-03-20T08:36:59.622Z,6.90
2018-03-20T08:39:28.603Z,6.63
2018-03-20T08:41:56.892Z,7.10
2018-03-20T08:44:25.214Z,5.53
2018-03-20T08:46:53.457Z,6.23
2018-03-20T08:49:21.813Z,5.63
2018-03-20T08:51:50.130Z,6.20
2018-03-20T08:54:18.445Z,6.47
2018-03-20T08:56:46.720Z,5.60
2018-03-20T08:59:14.980Z,6.13
2018-03-20T09:01:43.267Z,5.53
2018-03-20T09:04:11.555Z,5.93
2018-03-20T09:06:39.996Z,5.53
2018-03-20T09:09:08.261Z,4.70
2018-03-20T09:11:36.512Z,5.10
2018-03-20T09:14:05.483Z,5.93
2018-03-20T09:16:33.794Z,5.17
2018-03-20T09:19:02.112Z,5.43
2018-03-20T09:21:30.380Z,5.50
2018-03-20T09:23:58.653Z,5.40
2018-03-20T09:26:26.913Z,5.50
2018-03-20T09:28:55.203Z,5.20
2018-03-20T09:31:23.467Z,5.63
2018-03-20T09:33:51.756Z,4.87
2018-03-20T09:36:20.038Z,5.03
2018-03-20T09:38:48.468Z,4.90
2018-03-20T09:41:16.772Z,4.70
2018-03-20T09:43:45.248Z,4.60
2018-03-20T09:46:13.788Z,6.00
2018-03-20T09:48:42.100Z,4.90
2018-03-20T09:51:10.433Z,6.13
2018-03-20T09:53:38.726Z,4.37
2018-03-20T09:56:07.000Z,4.60
2018-03-20T09:58:35.312Z,4.90
2018-03-20T10:01:04.461Z,4.40
2018-03-20T10:03:33.354Z,5.20
2018-03-20T10:06:01.875Z,4.90
2018-03-20T10:08:30.136Z,5.97
2018-03-20T10:10:58.395Z,5.03
2018-03-20T10:13:26.784Z,5.77
2018-03-20T10:15:55.058Z,5.27
2018-03-20T10:18:23.339Z,4.63
2018-03-20T10:20:51.607Z,4.85
2018-03-20T10:23:19.895Z,4.97
2018-03-20T10:25:48.217Z,4.43
2018-03-20T10:28:16.476Z,4.55
2018-03-20T10:30:44.767Z,5.00
2018-03-20T10:33:13.024Z,4.30
2018-03-20T10:35:41.326Z,5.13
2018-03-20T10:38:09.612Z,4.93
2018-03-20T10:40:37.994Z,4.63
2018-03-20T10:43:06.260Z,4.70
2018-03-20T10:45:35.196Z,4.67
2018-03-20T10:48:03.465Z,4.60
2018-03-20T10:50:31.747Z,5.23
2018-03-20T10:53:00.028Z,5.53
2018-03-20T10:55:29.162Z,5.30
2018-03-20T10:57:57.456Z,6.23
2018-03-20T11:00:31.364Z,5.90
2018-03-20T11:02:59.595Z,6.07
2018-03-20T11:05:27.925Z,6.77
2018-03-20T11:07:56.178Z,5.30
2018-03-20T11:10:24.721Z,9.17
2018-03-20T11:12:53.959Z,6.00
2018-03-20T11:15:22.251Z,6.10
2018-03-20T11:17:50.505Z,6.10
2018-03-20T11:20:18.823Z,5.90
2018-03-20T11:22:47.086Z,5.23
2018-03-20T11:25:16.020Z,4.60
2018-03-20T11:27:44.349Z,5.80
2018-03-20T11:30:12.621Z,5.80
2018-03-20T11:32:40.958Z,5.57
2018-03-20T11:35:09.274Z,5.90
2018-03-20T11:37:37.682Z,6.13
2018-03-20T11:40:05.993Z,5.83
2018-03-20T11:42:34.283Z,5.47
2018-03-20T11:45:02.584Z,6.10
2018-03-20T11:47:30.868Z,6.50
2018-03-20T11:49:59.136Z,6.20
2018-03-20T11:52:27.495Z,7.07
2018-03-20T11:54:55.802Z,7.67
2018-03-20T11:57:24.048Z,6.25
2018-03-20T11:59:53.195Z,6.53
2018-03-20T12:02:21.471Z,6.70
2018-03-20T12:04:49.788Z,7.00
2018-03-20T12:07:18.386Z,7.20
2018-03-20T12:09:48.678Z,7.30
2018-03-20T12:12:16.955Z,6.65
2018-03-20T12:14:45.215Z,6.47
2018-03-20T12:17:13.634Z,9.45
2018-03-20T12:19:41.921Z,6.97
2018-03-20T12:22:10.187Z,6.35
2018-03-20T12:24:38.491Z,6.85
2018-03-20T12:27:06.780Z,6.40
2018-03-20T12:29:35.078Z,6.37
2018-03-20T12:32:03.486Z,6.90
2018-03-20T12:34:31.785Z,7.20
2018-03-20T12:37:00.885Z,6.40
2018-03-20T12:39:29.229Z,5.62
2018-03-20T12:41:57.540Z,6.30
2018-03-20T12:44:25.836Z,6.13
2018-03-20T12:46:54.135Z,5.60
2018-03-20T12:49:22.447Z,6.00
2018-03-20T12:51:50.740Z,5.80
2018-03-20T12:54:19.088Z,5.97
2018-03-20T12:56:48.391Z,5.80
2018-03-20T12:59:16.690Z,5.95
2018-03-20T13:01:45.176Z,6.12
2018-03-20T13:04:13.471Z,6.45
2018-03-20T13:06:41.828Z,5.60
2018-03-20T13:09:11.037Z,7.00
2018-03-20T13:11:39.357Z,7.93
2018-03-20T13:14:07.648Z,8.20
2018-03-20T13:16:36.104Z,6.50
2018-03-20T13:19:05.792Z,6.50
2018-03-20T13:21:34.856Z,5.63
2018-03-20T13:24:03.108Z,7.00
2018-03-20T13:26:32.057Z,6.07
2018-03-20T13:29:00.316Z,6.57
2018-03-20T13:31:30.361Z,7.13
2018-03-20T13:33:59.004Z,6.73
2018-03-20T13:36:27.290Z,7.30
2018-03-20T13:38:55.562Z,5.90
2018-03-20T13:41:23.972Z,6.43
2018-03-20T13:43:52.252Z,8.07
2018-03-20T13:46:21.105Z,7.62
2018-03-20T13:48:51.248Z,7.30
2018-03-20T13:51:20.418Z,6.10
2018-03-20T13:53:48.693Z,5.93
2018-03-20T13:56:16.998Z,6.43
2018-03-20T13:58:45.295Z,10.33
2018-03-20T14:01:13.542Z,7.10
2018-03-20T14:03:41.803Z,6.90
2018-03-20T14:06:10.154Z,7.03
2018-03-20T14:08:38.427Z,7.80
2018-03-20T14:11:06.771Z,7.07
2018-03-20T14:13:35.008Z,6.82
2018-03-20T14:16:03.287Z,6.30
2018-03-20T14:18:31.608Z,6.28
2018-03-20T14:20:59.993Z,6.87
2018-03-20T14:23:28.289Z,7.20
2018-03-20T14:25:56.551Z,6.97
2018-03-20T14:28:24.942Z,6.97
2018-03-20T14:30:53.195Z,5.03
2018-03-20T14:33:21.534Z,8.55
2018-03-20T14:35:49.777Z,7.57
2018-03-20T14:38:18.068Z,7.87
2018-03-20T14:40:46.337Z,8.40
2018-03-20T14:43:14.660Z,7.40
2018-03-20T14:45:43.255Z,7.47
2018-03-20T14:48:11.532Z,9.00
2018-03-20T14:50:39.808Z,8.73
2018-03-20T14:53:08.111Z,7.90
2018-03-20T14:55:36.957Z,7.23
2018-03-20T14:58:05.280Z,8.00
2018-03-20T15:00:33.534Z,8.70
2018-03-20T15:03:01.888Z,7.73
2018-03-20T15:05:30.213Z,8.50
2018-03-20T15:07:58.520Z,8.60
2018-03-20T15:10:26.900Z,8.90
2018-03-20T15:12:55.218Z,9.07
2018-03-20T15:15:23.513Z,10.98
2018-03-20T15:17:52.638Z,11.03
2018-03-20T15:20:20.927Z,7.23
2018-03-20T15:22:49.197Z,8.20
2018-03-20T15:25:17.505Z,8.43
2018-03-20T15:27:45.805Z,8.33
2018-03-20T15:30:14.921Z,7.30
2018-03-20T15:32:43.462Z,7.13
2018-03-20T15:35:12.691Z,8.03
2018-03-20T15:37:40.984Z,7.27
2018-03-20T15:40:09.340Z,7.90
2018-03-20T15:42:37.646Z,7.70
2018-03-20T15:45:05.915Z,7.30
2018-03-20T15:47:34.178Z,7.37
2018-03-20T15:50:02.469Z,7.20
2018-03-20T15:52:30.752Z,8.33
2018-03-20T15:54:59.115Z,6.97
2018-03-20T15:57:27.440Z,7.50
2018-03-20T15:59:55.731Z,7.10
2018-03-20T16:02:23.999Z,7.10
2018-03-20T16:04:52.337Z,6.07
2018-03-20T16:07:20.589Z,5.87
2018-03-20T16:09:48.890Z,5.53
2018-03-20T16:12:17.183Z,6.43
2018-03-20T16:14:45.496Z,6.70
2018-03-20T16:17:14.062Z,6.70
2018-03-20T16:19:42.334Z,7.07
2018-03-20T16:22:10.641Z,6.60
2018-03-20T16:24:38.889Z,6.63
2018-03-20T16:27:07.233Z,6.87
2018-03-20T16:29:35.521Z,6.83
2018-03-20T16:32:03.800Z,6.40
2018-03-20T16:34:32.084Z,6.60
2018-03-20T16:37:00.375Z,6.70
2018-03-20T16:39:28.660Z,6.33
2018-03-20T16:41:57.583Z,5.97
2018-03-20T16:44:25.873Z,6.50
2018-03-20T16:46:54.161Z,6.60
2018-03-20T16:49:22.471Z,7.50
2018-03-20T16:51:51.604Z,8.07
2018-03-20T16:54:19.860Z,7.83
2018-03-20T16:56:48.177Z,8.30
2018-03-20T16:59:16.473Z,6.70
2018-03-20T17:01:44.851Z,6.53
2018-03-20T17:04:13.118Z,6.90
2018-03-20T17:06:41.448Z,7.37
2018-03-20T17:09:09.779Z,6.90
2018-03-20T17:11:38.060Z,8.05
2018-03-20T17:14:06.383Z,7.80
2018-03-20T17:16:34.644Z,8.50
2018-03-20T17:19:02.928Z,8.80
2018-03-20T17:21:31.220Z,7.87
2018-03-20T17:23:59.517Z,8.73
2018-03-20T17:26:27.767Z,7.93
2018-03-20T17:28:56.059Z,7.40
2018-03-20T17:31:24.328Z,7.77
2018-03-20T17:33:52.627Z,6.97
2018-03-20T17:36:20.907Z,6.75
2018-03-20T17:38:49.724Z,7.30
2018-03-20T17:41:17.993Z,7.53
2018-03-20T17:43:46.285Z,7.13
2018-03-20T17:46:14.633Z,7.33
2018-03-20T17:48:42.921Z,7.77
2018-03-20T17:51:11.252Z,7.95
2018-03-20T17:53:39.693Z,7.87
2018-03-20T17:56:07.949Z,7.53
2018-03-20T17:58:36.328Z,7.70
2018-03-20T18:01:05.747Z,7.70
2018-03-20T18:03:34.029Z,7.77
2018-03-20T18:06:02.299Z,8.17
2018-03-20T18:08:30.579Z,8.23
2018-03-20T18:10:58.899Z,8.50
2018-03-20T18:13:27.388Z,8.87
2018-03-20T18:15:55.878Z,9.30
2018-03-20T18:18:24.353Z,9.60
2018-03-20T18:20:52.659Z,9.17
2018-03-20T18:23:20.978Z,9.70
2018-03-20T18:25:49.325Z,9.07
2018-03-20T18:28:17.620Z,10.32
2018-03-20T18:30:45.907Z,9.30
2018-03-20T18:33:14.187Z,9.50
2018-03-20T18:35:42.492Z,8.47
2018-03-20T18:38:10.775Z,8.65
2018-03-20T18:40:39.075Z,8.60
2018-03-20T18:43:07.363Z,8.90
2018-03-20T18:45:35.636Z,8.87
2018-03-20T18:48:04.057Z,9.33
2018-03-20T18:50:32.463Z,9.17
2018-03-20T18:53:00.700Z,8.80
2018-03-20T18:55:29.053Z,8.03
2018-03-20T18:57:58.682Z,9.53
2018-03-20T19:00:26.979Z,9.00
2018-03-20T19:02:55.230Z,9.50
2018-03-20T19:05:23.550Z,10.48
2018-03-20T19:07:51.870Z,9.27
2018-03-20T19:10:20.106Z,9.50
2018-03-20T19:12:48.397Z,9.80
2018-03-20T19:15:16.703Z,9.43
2018-03-20T19:17:44.999Z,10.80
2018-03-20T19:20:13.309Z,10.00
2018-03-20T19:22:41.646Z,8.60
2018-03-20T19:25:09.965Z,8.40
2018-03-20T19:27:38.280Z,8.00
2018-03-20T19:30:06.556Z,7.70
2018-03-20T19:32:34.880Z,8.77
2018-03-20T19:35:03.156Z,8.20
2018-03-20T19:37:31.448Z,7.37
2018-03-20T19:39:59.708Z,8.10
2018-03-20T19:42:30.802Z,7.70
2018-03-20T19:44:59.836Z,7.53
2018-03-20T19:47:28.335Z,7.87
2018-03-20T19:49:56.725Z,6.80
2018-03-20T19:52:24.998Z,6.10
2018-03-20T19:54:53.257Z,6.17
2018-03-20T19:57:21.549Z,6.40
2018-03-20T19:59:49.837Z,8.60
2018-03-20T20:02:18.140Z,7.00
2018-03-20T20:04:46.424Z,6.97
2018-03-20T20:07:14.749Z,6.40
2018-03-20T20:09:42.978Z,5.80
2018-03-20T20:12:11.275Z,5.23
2018-03-20T20:14:39.552Z,6.12
2018-03-20T20:17:07.827Z,5.80
2018-03-20T20:19:36.092Z,6.67
2018-03-20T20:22:04.399Z,6.80
2018-03-20T20:24:32.672Z,7.18
2018-03-20T20:27:00.950Z,7.80
2018-03-20T20:29:29.256Z,7.90
2018-03-20T20:31:57.503Z,9.07
2018-03-20T20:34:26.136Z,9.80
2018-03-20T20:36:55.532Z,11.82
2018-03-20T20:39:23.827Z,11.27
2018-03-20T20:41:52.209Z,9.67
2018-03-20T20:44:20.537Z,8.02
2018-03-20T20:46:48.792Z,6.70
2018-03-20T20:49:17.105Z,7.10
2018-03-20T20:51:45.373Z,7.00
2018-03-20T20:54:13.657Z,6.78
2018-03-20T20:56:41.946Z,7.03
2018-03-20T20:59:10.389Z,6.60
2018-03-20T21:01:38.637Z,5.70
2018-03-20T21:04:06.932Z,6.18
2018-03-20T21:06:35.210Z,6.00
2018-03-20T21:09:03.484Z,5.80
2018-03-20T21:11:31.759Z,5.97
2018-03-20T21:14:00.049Z,6.30
2018-03-20T21:16:28.317Z,5.57
2018-03-20T21:18:56.630Z,6.80
2018-03-20T21:21:24.960Z,5.63
2018-03-20T21:23:53.232Z,6.00
2018-03-20T21:26:21.534Z,5.75
2018-03-20T21:28:50.459Z,5.60
2018-03-20T21:31:18.749Z,6.17
2018-03-20T21:33:47.041Z,6.60
2018-03-20T21:36:15.288Z,7.47
2018-03-20T21:38:43.577Z,6.10
2018-03-20T21:41:11.902Z,6.70
2018-03-20T21:43:40.244Z,6.20
2018-03-20T21:46:08.518Z,6.50
2018-03-20T21:48:36.816Z,5.93
2018-03-20T21:51:05.413Z,6.43
2018-03-20T21:53:33.800Z,6.27
2018-03-20T21:56:02.100Z,6.20
2018-03-20T21:58:30.453Z,7.50
2018-03-20T22:00:58.724Z,6.43
2018-03-20T22:03:27.023Z,7.10
2018-03-20T22:05:55.305Z,7.10
2018-03-20T22:08:23.591Z,6.97
2018-03-20T22:10:51.900Z,6.63
2018-03-20T22:13:20.168Z,5.82
2018-03-20T22:15:48.460Z,6.70
2018-03-20T22:18:16.719Z,6.30
2018-03-20T22:20:44.976Z,7.53
2018-03-20T22:23:13.289Z,7.50
2018-03-20T22:25:41.560Z,8.47
2018-03-20T22:28:10.671Z,7.75
2018-03-20T22:30:38.952Z,7.35
2018-03-20T22:33:07.257Z,7.00
2018-03-20T22:35:35.508Z,7.50
2018-03-20T22:38:03.794Z,6.87
2018-03-20T22:40:32.052Z,6.10
2018-03-20T22:43:00.361Z,6.12
2018-03-20T22:45:28.611Z,5.80
2018-03-20T22:47:56.912Z,5.47
2018-03-20T22:50:25.165Z,5.43
2018-03-20T22:52:53.442Z,6.07
2018-03-20T22:55:21.724Z,5.82
2018-03-20T22:57:50.041Z,5.70
2018-03-20T23:00:34.253Z,6.20
2018-03-20T23:03:02.527Z,6.80
2018-03-20T23:05:30.810Z,5.97
2018-03-20T23:07:59.079Z,6.40
2018-03-20T23:10:27.357Z,6.23
2018-03-20T23:12:55.657Z,6.07
2018-03-20T23:15:23.938Z,6.47
2018-03-20T23:17:52.219Z,5.80
2018-03-20T23:20:20.540Z,6.20
2018-03-20T23:22:48.880Z,6.93
2018-03-20T23:25:17.149Z,7.37
2018-03-20T23:27:45.402Z,7.30
2018-03-20T23:30:13.692Z,7.37
2018-03-20T23:32:41.961Z,7.30
2018-03-20T23:35:10.240Z,7.60
2018-03-20T23:37:38.555Z,7.20
2018-03-20T23:40:06.883Z,8.18
2018-03-20T23:42:35.155Z,7.50
2018-03-20T23:45:03.455Z,6.70
2018-03-20T23:47:31.720Z,7.17
2018-03-20T23:50:00.016Z,6.67
2018-03-20T23:52:28.327Z,6.50
2018-03-20T23:54:56.591Z,7.20
2018-03-20T23:57:24.852Z,6.53
2018-03-20T23:59:53.193Z,6.20
